Portada
METAR-TAF:

METAR-TAF

Aeroports :

Aeroport de Menorca

Menorca, Espanya

latitud: 39-52N, longitud: 004-14E, altitud: 87 m

Observació

L'informe es va fer fa 32 minuts, a les 05:00 UTC
Vent 1 kt del Est
Temperatura 10°C
Humitat 82%
Pressió 1030 hPa
Visibilitat 10 km o més
Escasses núvols a una alçada de 3800 ft

METAR: LEMH 180500Z 08001KT 9999 FEW038 10/07 Q1030

Hora: 06:32 (05:32 UTC)

Pronòstic

L'informe es va fer fa 3 hores i 32 minuts, a les 02:00 UTC
Pronòstic vàlid del 18 a les 03 UTC al 19 a les 03 UTC
Vent 5 kt del Nord/Nord-Est
Visibilitat 10 km o més
Núvols disperses a una alçada de 2500 ft
Evolucionant progressivament
l' 18 a les 09 UTC al 18 a les 12 UTC
Vent 10 kt del Sud-Oest

TAF: LEMH 180200Z 1803/1903 03005KT 9999 SCT025 TX15/1813Z TN06/1806Z BECMG 1809/1812 22010KT

Observacions i pronòstics meteorològics de més de 4000 aeroports (METAR i TAF).

Les estacions disponibles són els punts grocs i vermells al mapa.

Posi el ratolí al punt desitjat per veure el nom de l'estació.

Feu clic per veure les observacions i els pronòstics meteorològics.

Per canviar el mapa: feu clic els botons verds amb una creu de color negre per apropar; al botó verd amb un guió per allunyar la imatge; o en les fletxes verdes per a mapes adjacents.


METAR-TAF: